Time;durP1;ratioP1;P1;durP2;ratioP2;P2;SDS_P1;SDS_P2;PMS_P1;PMS_P2;Temp;Humidity;BMP_temperature;BMP_pressure;BME280_temperature;BME280_humidity;BME280_pressure;Samples;Min_cycle;Max_cycle;Signal;HPM_P1;HPM_P2
2020/12/06 00:04:35;;;;;;;37.65;25.10;;;5.30;98.10;;;;;;10451379;28;20127;-67
2020/12/06 00:09:37;;;;;;;33.47;23.73;;;5.20;98.00;;;;;;10450956;28;20493;-67
2020/12/06 00:14:39;;;;;;;38.72;26.23;;;5.10;98.30;;;;;;10465977;28;20036;-67
2020/12/06 00:19:41;;;;;;;38.40;26.00;;;5.20;98.70;;;;;;10435298;28;20075;-67
2020/12/06 00:24:42;;;;;;;34.20;24.40;;;5.20;98.70;;;;;;10450117;28;20049;-67
2020/12/06 00:29:44;;;;;;;40.88;26.75;;;5.30;98.50;;;;;;10436257;28;20052;-67
2020/12/06 00:34:45;;;;;;;36.30;24.73;;;5.40;98.20;;;;;;10433710;28;20050;-67
2020/12/06 00:39:47;;;;;;;38.15;25.80;;;5.40;98.30;;;;;;10430358;28;20049;-67
2020/12/06 00:44:50;;;;;;;37.72;25.30;;;5.60;98.20;;;;;;10450283;28;20428;-67
2020/12/06 00:49:51;;;;;;;37.05;25.35;;;5.40;97.80;;;;;;10449631;28;20459;-67
2020/12/06 00:54:53;;;;;;;38.60;25.92;;;5.30;98.40;;;;;;10449493;28;20076;-67
2020/12/06 00:59:54;;;;;;;42.13;27.05;;;5.40;98.40;;;;;;10439498;28;20052;-67
2020/12/06 01:04:58;;;;;;;40.08;26.95;;;5.50;98.10;;;;;;10448203;28;20076;-67
2020/12/06 01:09:59;;;;;;;51.28;30.35;;;5.30;98.30;;;;;;10451041;28;20115;-67
2020/12/06 01:15:01;;;;;;;58.00;31.42;;;5.20;99.20;;;;;;10449488;28;20079;-67
2020/12/06 01:20:05;;;;;;;50.42;30.48;;;5.10;99.70;;;;;;10449475;28;20111;-67
2020/12/06 01:25:06;;;;;;;56.85;31.38;;;5.20;99.80;;;;;;10449094;28;20458;-67
2020/12/06 01:30:08;;;;;;;57.70;31.35;;;5.30;99.70;;;;;;10445620;28;20088;-67
2020/12/06 01:35:12;;;;;;;48.30;28.95;;;5.30;99.70;;;;;;10442195;28;20127;-67
2020/12/06 01:40:14;;;;;;;39.10;25.92;;;5.40;99.30;;;;;;10437348;28;20077;-67
2020/12/06 01:45:15;;;;;;;43.85;28.20;;;5.50;99.00;;;;;;10436921;28;20052;-67
2020/12/06 01:50:18;;;;;;;41.20;27.30;;;5.50;98.80;;;;;;10447196;28;20140;-67
2020/12/06 01:55:21;;;;;;;67.75;33.58;;;5.40;99.10;;;;;;10441542;28;20041;-67
2020/12/06 02:00:23;;;;;;;55.58;31.30;;;5.30;99.30;;;;;;10425729;28;20509;-67
2020/12/06 02:05:25;;;;;;;74.40;35.35;;;5.20;99.90;;;;;;10456237;28;20048;-67
2020/12/06 02:10:27;;;;;;;65.75;33.33;;;5.20;99.90;;;;;;10457068;28;20106;-67
2020/12/06 02:15:29;;;;;;;53.78;32.05;;;5.30;99.90;;;;;;10457086;28;20152;-67
2020/12/06 02:20:30;;;;;;;48.97;30.45;;;5.50;99.90;;;;;;10471550;28;20148;-67
2020/12/06 02:25:39;;;;;;;48.50;29.35;;;5.60;99.60;;;;;;10457373;28;20461;-67
2020/12/06 02:30:41;;;;;;;35.60;25.73;;;5.70;99.50;;;;;;10456254;28;20488;-67
2020/12/06 02:35:42;;;;;;;49.63;29.25;;;5.70;98.90;;;;;;10456784;28;20040;-67
2020/12/06 02:40:43;;;;;;;58.97;32.78;;;5.70;98.80;;;;;;10456644;28;20565;-67
2020/12/06 02:45:45;;;;;;;68.03;35.10;;;5.50;99.70;;;;;;10456217;28;20136;-67
2020/12/06 02:50:46;;;;;;;60.38;33.38;;;5.30;99.90;;;;;;10456793;28;20140;-67
2020/12/06 02:55:48;;;;;;;67.55;35.30;;;5.40;99.90;;;;;;10456029;28;20084;-67
2020/12/06 03:00:49;;;;;;;59.72;33.17;;;5.50;99.90;;;;;;10454188;28;20059;-67
2020/12/06 03:05:51;;;;;;;88.82;38.03;;;5.60;99.90;;;;;;10454726;28;20390;-67
2020/12/06 03:10:52;;;;;;;110.60;40.70;;;5.60;99.90;;;;;;10455618;28;20509;-67
2020/12/06 03:15:54;;;;;;;70.03;35.15;;;5.60;99.90;;;;;;10454618;28;20143;-67
2020/12/06 03:20:56;;;;;;;101.30;40.42;;;5.60;99.90;;;;;;10454625;28;20045;-67
2020/12/06 03:25:57;;;;;;;71.53;36.38;;;5.60;99.90;;;;;;10454983;28;20483;-67
2020/12/06 03:30:58;;;;;;;80.75;37.83;;;5.60;99.90;;;;;;10453626;28;20056;-67
2020/12/06 03:36:00;;;;;;;78.72;36.72;;;5.60;99.90;;;;;;10454617;28;20111;-67
2020/12/06 03:41:02;;;;;;;73.75;35.45;;;5.60;99.90;;;;;;10454475;28;20084;-67
2020/12/06 03:46:03;;;;;;;73.57;35.22;;;5.60;99.90;;;;;;10453270;28;20102;-67
2020/12/06 03:51:04;;;;;;;80.25;35.53;;;5.60;99.90;;;;;;10453493;28;20517;-67
2020/12/06 03:56:06;;;;;;;82.45;35.10;;;5.60;99.90;;;;;;10453819;28;20044;-67
2020/12/06 04:01:07;;;;;;;54.50;30.90;;;5.70;99.90;;;;;;10452637;28;20099;-67
2020/12/06 04:06:09;;;;;;;85.88;35.05;;;5.70;99.90;;;;;;10453924;28;20047;-67
2020/12/06 04:11:10;;;;;;;70.75;34.50;;;5.70;99.90;;;;;;10453228;28;20079;-67
2020/12/06 04:16:12;;;;;;;69.45;33.65;;;5.60;99.90;;;;;;10451824;28;20183;-67
2020/12/06 04:21:16;;;;;;;58.95;32.33;;;5.60;99.90;;;;;;10452278;28;20128;-67
2020/12/06 04:26:17;;;;;;;59.55;32.95;;;5.60;99.90;;;;;;10414327;28;20135;-67
2020/12/06 04:31:19;;;;;;;65.10;33.92;;;5.60;99.90;;;;;;10451977;28;20131;-67
2020/12/06 04:36:20;;;;;;;79.40;36.40;;;5.60;99.90;;;;;;10452722;28;20044;-67
2020/12/06 04:41:23;;;;;;;75.03;34.05;;;5.60;99.90;;;;;;10452041;28;20079;-67
2020/12/06 04:46:28;;;;;;;74.05;34.47;;;5.70;99.90;;;;;;10451642;28;20076;-67
2020/12/06 04:51:39;;;;;;;75.22;34.65;;;5.70;99.90;;;;;;10451023;28;20056;-67
2020/12/06 04:56:43;;;;;;;77.03;34.30;;;5.80;99.90;;;;;;10451792;28;20053;-67
2020/12/06 05:01:48;;;;;;;72.95;32.67;;;5.70;99.90;;;;;;10451413;28;20421;-67
2020/12/06 05:06:49;;;;;;;68.82;33.20;;;5.70;99.90;;;;;;10425823;28;20045;-67
2020/12/06 05:11:51;;;;;;;64.82;32.78;;;5.70;99.90;;;;;;10440302;28;20057;-67
2020/12/06 05:16:56;;;;;;;71.43;34.30;;;5.70;99.90;;;;;;10451189;28;20137;-67
2020/12/06 05:21:57;;;;;;;68.35;34.08;;;5.70;99.90;;;;;;10451019;28;20056;-67
2020/12/06 05:26:59;;;;;;;71.28;33.85;;;5.70;99.90;;;;;;10453259;28;20091;-67
2020/12/06 05:32:01;;;;;;;55.70;31.00;;;5.70;99.90;;;;;;10458596;28;20091;-67
2020/12/06 05:37:05;;;;;;;60.97;31.58;;;5.70;99.90;;;;;;10459367;28;20053;-67
2020/12/06 05:42:08;;;;;;;58.60;31.38;;;5.70;99.90;;;;;;10458859;28;20493;-67
2020/12/06 05:47:13;;;;;;;60.55;31.17;;;5.60;99.90;;;;;;10458385;28;20056;-67
2020/12/06 05:52:20;;;;;;;55.20;30.98;;;5.60;99.90;;;;;;10458615;28;20057;-67
2020/12/06 05:57:26;;;;;;;75.05;33.92;;;5.60;99.90;;;;;;10458648;28;20128;-67
2020/12/06 06:02:28;;;;;;;68.65;32.67;;;5.60;99.90;;;;;;10457774;28;20090;-67
2020/12/06 06:07:31;;;;;;;77.57;34.67;;;5.60;99.90;;;;;;10457507;28;20049;-67
2020/12/06 06:12:34;;;;;;;74.07;33.63;;;5.70;99.90;;;;;;10458266;28;20045;-67
2020/12/06 06:17:36;;;;;;;58.25;30.85;;;5.70;99.90;;;;;;10457132;28;20045;-67
2020/12/06 06:22:45;;;;;;;55.08;29.88;;;5.70;99.90;;;;;;10456889;28;20049;-67
2020/12/06 06:27:46;;;;;;;69.32;32.13;;;5.80;99.90;;;;;;10457310;28;20045;-67
2020/12/06 06:32:48;;;;;;;40.90;24.88;;;5.80;99.90;;;;;;10457140;28;20423;-67
2020/12/06 06:37:49;;;;;;;50.35;28.60;;;5.80;99.90;;;;;;10455985;28;20147;-67
2020/12/06 06:42:54;;;;;;;56.15;29.17;;;5.80;99.90;;;;;;10456572;28;20088;-67
2020/12/06 06:47:56;;;;;;;49.85;27.90;;;5.80;99.90;;;;;;10456548;28;20044;-67
2020/12/06 06:53:01;;;;;;;55.45;29.13;;;5.70;99.90;;;;;;10456275;28;20091;-67
2020/12/06 06:58:04;;;;;;;55.45;28.90;;;5.80;99.90;;;;;;10456051;28;20386;-67
2020/12/06 07:03:11;;;;;;;47.75;27.58;;;5.80;99.90;;;;;;10455555;28;20055;-67
2020/12/06 07:08:15;;;;;;;55.83;28.98;;;5.90;99.90;;;;;;10455475;28;20053;-67
2020/12/06 07:13:19;;;;;;;64.80;30.67;;;5.90;99.90;;;;;;10455019;28;20048;-67
2020/12/06 07:18:21;;;;;;;46.67;25.83;;;5.90;99.90;;;;;;10440108;28;20411;-67
2020/12/06 07:23:23;;;;;;;51.47;26.67;;;5.90;99.90;;;;;;10443027;28;20059;-67
2020/12/06 07:28:24;;;;;;;57.63;28.52;;;5.90;99.90;;;;;;10435161;28;20528;-67
2020/12/06 07:33:26;;;;;;;51.50;27.88;;;5.90;99.90;;;;;;10436185;28;20139;-67
2020/12/06 07:38:27;;;;;;;47.92;27.25;;;5.90;99.90;;;;;;10440437;28;20504;-67
2020/12/06 07:43:29;;;;;;;43.30;25.95;;;6.00;99.90;;;;;;10449219;28;20084;-67
2020/12/06 07:48:31;;;;;;;46.28;27.58;;;6.00;99.90;;;;;;10449336;28;20128;-67
2020/12/06 07:54:03;;;;;;;43.75;25.13;;;6.10;99.90;;;;;;10445532;28;20501;-68
2020/12/06 07:59:25;;;;;;;52.03;28.30;;;6.10;99.90;;;;;;10443125;28;20052;-67
2020/12/06 08:04:31;;;;;;;56.40;30.67;;;6.10;99.90;;;;;;10445087;28;20580;-67
2020/12/06 08:09:38;;;;;;;63.75;28.98;;;6.20;99.90;;;;;;10442725;28;20087;-67
2020/12/06 08:14:39;;;;;;;55.72;29.25;;;6.20;99.90;;;;;;10446961;28;20040;-67
2020/12/06 08:19:42;;;;;;;57.53;29.02;;;6.20;99.90;;;;;;10435016;28;20132;-67
2020/12/06 08:24:43;;;;;;;56.08;28.95;;;6.20;99.90;;;;;;10441636;28;20139;-67
2020/12/06 08:29:47;;;;;;;62.35;29.67;;;6.30;99.90;;;;;;10444657;28;20405;-67
2020/12/06 08:34:55;;;;;;;52.10;27.98;;;6.20;99.90;;;;;;10436431;28;20045;-67
2020/12/06 08:40:02;;;;;;;49.05;26.58;;;6.10;99.90;;;;;;10442839;28;20628;-68
2020/12/06 08:45:04;;;;;;;54.67;27.90;;;6.20;99.90;;;;;;10444884;28;20438;-67
2020/12/06 08:50:08;;;;;;;48.40;26.80;;;6.20;99.90;;;;;;10437729;28;20069;-67
2020/12/06 08:55:29;;;;;;;46.45;27.05;;;6.20;99.90;;;;;;10441610;28;20143;-67
2020/12/06 09:00:31;;;;;;;43.63;25.75;;;6.20;99.90;;;;;;10435523;28;20124;-67
2020/12/06 09:05:32;;;;;;;38.70;23.73;;;6.20;99.90;;;;;;10452542;28;20045;-67
2020/12/06 09:10:33;;;;;;;43.28;25.25;;;6.20;99.90;;;;;;10447576;28;20124;-67
2020/12/06 09:15:36;;;;;;;41.08;24.50;;;6.20;99.90;;;;;;10447336;28;20047;-67
2020/12/06 09:20:37;;;;;;;54.22;27.45;;;6.30;99.90;;;;;;10447538;28;20136;-67
2020/12/06 09:25:39;;;;;;;49.05;26.02;;;6.40;99.90;;;;;;10446284;28;20467;-67
2020/12/06 09:30:43;;;;;;;39.00;23.33;;;6.50;99.90;;;;;;10448726;28;20127;-67
2020/12/06 09:35:45;;;;;;;40.80;24.10;;;6.50;99.90;;;;;;10451064;28;20397;-67
2020/12/06 09:40:46;;;;;;;37.65;22.30;;;6.60;99.90;;;;;;10454193;28;20072;-67
2020/12/06 09:45:48;;;;;;;38.15;22.50;;;6.60;99.90;;;;;;10451837;28;20449;-67
2020/12/06 09:50:49;;;;;;;41.22;24.15;;;6.70;99.90;;;;;;10448491;28;20108;-67
2020/12/06 09:55:51;;;;;;;36.13;21.75;;;6.70;99.90;;;;;;10451608;28;20045;-67
2020/12/06 10:00:52;;;;;;;34.22;20.83;;;6.80;99.90;;;;;;10450415;28;20072;-67
2020/12/06 10:05:54;;;;;;;34.47;21.80;;;6.90;99.80;;;;;;10448397;28;20048;-67
2020/12/06 10:11:00;;;;;;;37.28;22.92;;;6.80;99.90;;;;;;10453572;28;20487;-67
2020/12/06 10:16:02;;;;;;;34.17;22.15;;;6.70;99.90;;;;;;10449349;28;20053;-67
2020/12/06 10:21:05;;;;;;;48.58;25.95;;;6.80;99.90;;;;;;10440247;28;20072;-67
2020/12/06 10:26:06;;;;;;;39.45;23.30;;;6.70;99.90;;;;;;10451805;28;20127;-67
2020/12/06 10:31:08;;;;;;;48.95;25.88;;;6.60;99.90;;;;;;10445204;28;20060;-70
2020/12/06 10:36:10;;;;;;;37.75;22.45;;;6.70;99.90;;;;;;10445019;28;20041;-70
2020/12/06 10:41:12;;;;;;;42.58;24.00;;;6.60;99.90;;;;;;10442182;28;20424;-70
2020/12/06 10:46:13;;;;;;;49.60;25.40;;;6.80;99.90;;;;;;10442607;28;20059;-70
2020/12/06 10:51:15;;;;;;;37.47;22.42;;;6.80;99.90;;;;;;10451775;28;20156;-70
2020/12/06 10:56:19;;;;;;;51.67;26.80;;;6.90;99.90;;;;;;10441091;28;20112;-70
2020/12/06 11:01:28;;;;;;;49.72;25.40;;;7.00;99.90;;;;;;10448614;28;20048;-70
2020/12/06 11:06:31;;;;;;;48.40;25.30;;;7.00;99.90;;;;;;10448858;28;20049;-70
2020/12/06 11:11:33;;;;;;;46.65;25.05;;;6.90;99.90;;;;;;10442886;28;20037;-70
2020/12/06 11:16:34;;;;;;;52.90;26.00;;;6.90;99.90;;;;;;10441414;28;20124;-70
2020/12/06 11:21:36;;;;;;;51.72;24.90;;;7.00;99.90;;;;;;10444456;28;20060;-70
2020/12/06 11:26:37;;;;;;;53.15;25.45;;;7.10;99.90;;;;;;10435426;28;20315;-70
2020/12/06 11:31:39;;;;;;;40.47;22.95;;;7.20;99.90;;;;;;10439280;28;20436;-70
2020/12/06 11:36:40;;;;;;;49.00;26.67;;;7.20;99.90;;;;;;10445840;28;20564;-70
2020/12/06 11:41:42;;;;;;;38.05;22.23;;;7.20;99.90;;;;;;10449717;28;20053;-69
2020/12/06 11:46:46;;;;;;;36.00;21.95;;;7.30;99.90;;;;;;10449551;28;20049;-69
2020/12/06 11:51:48;;;;;;;43.83;23.50;;;7.30;99.90;;;;;;10443118;28;20060;-70
2020/12/06 11:56:49;;;;;;;34.42;21.20;;;7.20;99.90;;;;;;10445453;28;20056;-70
2020/12/06 12:01:52;;;;;;;32.42;21.35;;;7.20;99.90;;;;;;10438893;28;20501;-70
2020/12/06 12:06:54;;;;;;;31.52;19.75;;;7.20;99.90;;;;;;10439598;28;20515;-70
2020/12/06 12:11:55;;;;;;;34.17;20.70;;;7.30;99.90;;;;;;10443002;28;20132;-70
2020/12/06 12:16:56;;;;;;;30.52;20.00;;;7.40;99.90;;;;;;10444985;28;20041;-70
2020/12/06 12:21:58;;;;;;;34.90;22.58;;;7.40;99.90;;;;;;10448361;28;20045;-70
2020/12/06 12:27:03;;;;;;;35.38;22.65;;;7.30;99.90;;;;;;10442541;28;20033;-70
2020/12/06 12:32:04;;;;;;;36.03;22.55;;;7.40;99.90;;;;;;10442024;28;20087;-70
2020/12/06 12:37:05;;;;;;;74.70;65.05;;;7.30;99.90;;;;;;10443868;28;20064;-70
2020/12/06 12:42:16;;;;;;;66.83;49.97;;;7.20;99.90;;;;;;10445242;28;20060;-70
2020/12/06 12:47:17;;;;;;;52.45;39.50;;;7.10;99.90;;;;;;10444916;28;20111;-70
2020/12/06 12:52:19;;;;;;;32.85;23.80;;;7.20;99.90;;;;;;10440393;28;20180;-70
2020/12/06 12:57:20;;;;;;;26.77;18.02;;;7.30;99.90;;;;;;10444448;28;20447;-70
2020/12/06 13:02:21;;;;;;;24.95;17.65;;;7.20;99.90;;;;;;10440837;28;20604;-70
2020/12/06 13:07:23;;;;;;;23.40;16.42;;;7.20;99.90;;;;;;10441299;28;20551;-70
2020/12/06 13:12:25;;;;;;;27.02;17.38;;;7.30;99.90;;;;;;10444739;28;20103;-70
2020/12/06 13:17:27;;;;;;;23.23;17.42;;;7.40;99.70;;;;;;10444671;28;20045;-70
2020/12/06 13:22:29;;;;;;;29.52;21.02;;;7.60;99.80;;;;;;10443357;28;20072;-70
2020/12/06 13:27:32;;;;;;;23.77;17.05;;;7.40;99.60;;;;;;10436993;28;20041;-70
2020/12/06 13:32:34;;;;;;;25.02;17.50;;;7.40;99.80;;;;;;10442451;28;20080;-70
2020/12/06 13:37:36;;;;;;;27.63;18.50;;;7.50;99.50;;;;;;10444315;28;20045;-69
2020/12/06 13:42:38;;;;;;;27.20;19.42;;;7.50;99.50;;;;;;10435489;28;20065;-69
2020/12/06 13:47:40;;;;;;;28.13;19.50;;;7.40;99.80;;;;;;10437656;28;20131;-70
2020/12/06 13:52:42;;;;;;;27.88;17.35;;;7.40;99.90;;;;;;10446671;28;20143;-70
2020/12/06 13:57:44;;;;;;;30.77;19.45;;;7.40;99.70;;;;;;10447747;28;20053;-70
2020/12/06 14:02:46;;;;;;;33.45;19.92;;;7.30;99.50;;;;;;10449186;28;20130;-70
2020/12/06 14:07:48;;;;;;;33.17;20.38;;;7.10;99.60;;;;;;10446997;28;20425;-70
2020/12/06 14:12:50;;;;;;;34.22;19.83;;;7.00;99.90;;;;;;10431838;28;20053;-70
2020/12/06 14:17:52;;;;;;;34.50;20.40;;;7.00;99.90;;;;;;10436783;28;20136;-70
2020/12/06 14:22:54;;;;;;;36.90;21.92;;;7.10;99.90;;;;;;10447387;28;20057;-70
2020/12/06 14:27:56;;;;;;;40.90;21.60;;;7.10;99.90;;;;;;10450281;28;20099;-70
2020/12/06 14:32:58;;;;;;;37.35;21.23;;;7.20;99.90;;;;;;10433358;28;20049;-70
2020/12/06 14:38:01;;;;;;;39.55;22.00;;;7.10;99.90;;;;;;10441221;28;20056;-70
2020/12/06 14:43:03;;;;;;;36.13;22.15;;;7.20;99.90;;;;;;10447128;28;20041;-70
2020/12/06 14:48:05;;;;;;;38.60;22.50;;;7.20;99.50;;;;;;10445299;28;20400;-70
2020/12/06 14:53:09;;;;;;;34.17;20.42;;;7.20;99.80;;;;;;10449491;28;20590;-70
2020/12/06 14:58:11;;;;;;;28.75;18.40;;;7.20;99.40;;;;;;10448623;28;20459;-70
2020/12/06 15:03:13;;;;;;;38.30;21.38;;;7.20;99.30;;;;;;10449717;28;20055;-70
2020/12/06 15:08:14;;;;;;;43.13;25.63;;;7.20;99.70;;;;;;10438604;28;20128;-70
2020/12/06 15:13:15;;;;;;;41.78;26.10;;;7.20;99.80;;;;;;10448407;28;20049;-70
2020/12/06 15:18:17;;;;;;;35.13;21.48;;;7.30;99.70;;;;;;10449814;28;20052;-70
2020/12/06 15:23:18;;;;;;;45.78;23.42;;;7.30;99.40;;;;;;10443879;28;20102;-70
2020/12/06 15:28:20;;;;;;;42.70;21.85;;;7.40;99.80;;;;;;10436731;28;20041;-70
2020/12/06 15:33:21;;;;;;;42.83;22.63;;;7.30;99.90;;;;;;10444267;28;20520;-70
2020/12/06 15:38:23;;;;;;;42.15;23.33;;;7.30;99.90;;;;;;10441996;28;20112;-70
2020/12/06 15:43:25;;;;;;;39.15;22.30;;;7.30;99.90;;;;;;10446953;28;20049;-70
2020/12/06 15:48:26;;;;;;;44.38;23.13;;;7.40;99.90;;;;;;10445926;28;20104;-70
2020/12/06 15:53:28;;;;;;;47.53;25.50;;;7.40;99.90;;;;;;10446403;28;20083;-70
2020/12/06 15:58:29;;;;;;;54.95;25.45;;;7.30;99.90;;;;;;10446529;28;20060;-70
2020/12/06 16:03:31;;;;;;;57.00;26.60;;;7.20;99.90;;;;;;10441922;28;20053;-70
2020/12/06 16:08:34;;;;;;;53.95;25.05;;;7.30;99.90;;;;;;10445602;28;20073;-70
2020/12/06 16:13:37;;;;;;;55.97;25.23;;;7.20;99.90;;;;;;10434239;28;20049;-70
2020/12/06 16:18:38;;;;;;;59.00;27.48;;;7.20;99.90;;;;;;10445798;28;20049;-70
2020/12/06 16:23:41;;;;;;;57.67;26.27;;;7.20;99.90;;;;;;10447077;28;20099;-69
2020/12/06 16:28:43;;;;;;;56.22;27.23;;;7.20;99.90;;;;;;10442667;28;20077;-71
2020/12/06 16:33:45;;;;;;;61.58;27.88;;;7.20;99.90;;;;;;10444158;28;20257;-70
2020/12/06 16:38:46;;;;;;;50.17;26.75;;;7.20;99.90;;;;;;10441593;28;20080;-70
2020/12/06 16:43:47;;;;;;;59.38;29.33;;;7.20;99.90;;;;;;10443800;28;20072;-70
2020/12/06 16:48:49;;;;;;;66.85;29.52;;;7.20;99.90;;;;;;10461538;28;20076;-70
2020/12/06 16:53:50;;;;;;;57.60;26.25;;;7.20;99.90;;;;;;10443591;28;20084;-70
2020/12/06 16:58:52;;;;;;;65.47;28.13;;;7.20;99.90;;;;;;10443366;28;20045;-70
2020/12/06 17:03:54;;;;;;;64.88;28.30;;;7.20;99.90;;;;;;10441871;28;20045;-70
2020/12/06 17:08:56;;;;;;;63.45;28.65;;;7.20;99.90;;;;;;10440977;28;20048;-70
2020/12/06 17:13:57;;;;;;;81.32;31.88;;;7.20;99.90;;;;;;10432772;28;20203;-70
2020/12/06 17:18:59;;;;;;;104.25;33.70;;;7.10;99.90;;;;;;10442418;28;20622;-69
2020/12/06 17:24:02;;;;;;;79.53;31.27;;;7.00;99.90;;;;;;10445410;28;20044;-69
2020/12/06 17:29:09;;;;;;;76.95;29.50;;;7.00;99.90;;;;;;10447295;28;20139;-69
2020/12/06 17:34:10;;;;;;;76.80;30.08;;;7.00;99.90;;;;;;10445518;28;20449;-70
2020/12/06 17:39:11;;;;;;;70.38;28.25;;;7.10;99.90;;;;;;10437238;28;20099;-69
2020/12/06 17:44:13;;;;;;;67.63;28.48;;;7.20;99.90;;;;;;10436722;28;20503;-70
2020/12/06 17:49:14;;;;;;;73.57;30.27;;;7.10;99.90;;;;;;10435876;28;20053;-70
2020/12/06 17:54:16;;;;;;;57.92;27.30;;;7.20;99.90;;;;;;10437667;28;20084;-69
2020/12/06 17:59:18;;;;;;;73.35;29.85;;;7.10;99.90;;;;;;10440018;28;20053;-69
2020/12/06 18:04:19;;;;;;;67.68;31.08;;;7.10;99.90;;;;;;10434450;28;20052;-69
2020/12/06 18:09:21;;;;;;;80.28;33.20;;;7.10;99.90;;;;;;10437606;28;20049;-70
2020/12/06 18:14:24;;;;;;;99.78;34.13;;;7.10;99.90;;;;;;10441029;28;20421;-70
2020/12/06 18:19:25;;;;;;;94.20;33.92;;;7.10;99.90;;;;;;10454745;28;20136;-70
2020/12/06 18:24:27;;;;;;;81.97;33.10;;;7.10;99.90;;;;;;10447752;28;20084;-70
2020/12/06 18:29:30;;;;;;;85.75;32.97;;;7.00;99.90;;;;;;10450884;28;20080;-70
2020/12/06 18:34:33;;;;;;;75.15;30.45;;;7.00;99.90;;;;;;10437591;28;20040;-70
2020/12/06 18:39:35;;;;;;;84.60;33.22;;;7.00;99.90;;;;;;10455811;28;20124;-69
2020/12/06 18:44:37;;;;;;;67.97;29.88;;;7.00;99.90;;;;;;10440139;28;20272;-69
2020/12/06 18:49:38;;;;;;;109.05;35.97;;;6.90;99.90;;;;;;10427276;28;20045;-66
2020/12/06 18:54:40;;;;;;;68.95;32.58;;;6.90;99.90;;;;;;10452006;28;20505;-67
2020/12/06 18:59:41;;;;;;;101.85;52.10;;;6.80;99.90;;;;;;10448287;28;20049;-66
2020/12/06 19:04:43;;;;;;;106.13;43.03;;;6.70;99.90;;;;;;10442211;28;20565;-66
2020/12/06 19:09:45;;;;;;;104.78;47.33;;;6.70;99.90;;;;;;10442994;28;20053;-66
2020/12/06 19:14:46;;;;;;;71.35;36.72;;;6.70;99.90;;;;;;10457445;28;20047;-66
2020/12/06 19:19:49;;;;;;;79.45;38.10;;;6.80;99.90;;;;;;10447391;28;20049;-66
2020/12/06 19:24:51;;;;;;;87.88;38.53;;;6.80;99.90;;;;;;10441361;28;20130;-66
2020/12/06 19:29:53;;;;;;;77.75;35.00;;;6.90;99.90;;;;;;10444368;28;20414;-66
2020/12/06 19:34:55;;;;;;;85.28;33.53;;;6.90;99.90;;;;;;10442691;28;20068;-66
2020/12/06 19:39:56;;;;;;;103.03;37.92;;;6.90;99.90;;;;;;10441784;28;20049;-67
2020/12/06 19:44:58;;;;;;;99.45;35.47;;;7.00;99.90;;;;;;10444095;28;20489;-66
2020/12/06 19:50:00;;;;;;;71.93;31.33;;;7.10;99.90;;;;;;10445212;28;20059;-66
2020/12/06 19:55:04;;;;;;;66.30;32.00;;;7.00;99.90;;;;;;10446630;28;20057;-66
2020/12/06 20:00:07;;;;;;;50.78;28.10;;;6.90;99.90;;;;;;10444310;28;20469;-66
2020/12/06 20:05:08;;;;;;;48.45;28.52;;;7.00;99.90;;;;;;10445370;28;20045;-66
2020/12/06 20:10:10;;;;;;;49.22;28.13;;;7.00;99.90;;;;;;10440907;28;20083;-66
2020/12/06 20:15:11;;;;;;;43.92;25.67;;;7.00;99.90;;;;;;10447792;28;20040;-67
2020/12/06 20:20:13;;;;;;;44.38;25.52;;;7.10;99.90;;;;;;10453099;28;20053;-67
2020/12/06 20:25:15;;;;;;;40.35;24.65;;;7.00;99.90;;;;;;10444320;28;20394;-66
2020/12/06 20:30:16;;;;;;;57.40;33.40;;;7.10;99.90;;;;;;10441695;28;20080;-67
2020/12/06 20:35:18;;;;;;;39.03;23.70;;;7.00;99.90;;;;;;10445111;28;20103;-67
2020/12/06 20:40:19;;;;;;;45.10;26.17;;;6.90;99.90;;;;;;10438675;28;20136;-67
2020/12/06 20:45:21;;;;;;;42.65;23.75;;;6.90;99.90;;;;;;10440126;28;20059;-67
2020/12/06 20:50:34;;;;;;;42.45;25.02;;;6.90;99.90;;;;;;10446018;28;20138;-67
2020/12/06 20:55:38;;;;;;;40.60;23.02;;;6.90;99.90;;;;;;10446185;28;20478;-67
2020/12/06 21:00:40;;;;;;;47.78;25.75;;;7.00;99.90;;;;;;10460260;28;20459;-67
2020/12/06 21:05:42;;;;;;;48.83;26.70;;;7.00;99.90;;;;;;10462564;28;20044;-67
2020/12/06 21:10:43;;;;;;;49.17;27.08;;;7.10;99.90;;;;;;10464105;28;20129;-67
2020/12/06 21:15:45;;;;;;;48.85;27.40;;;7.00;99.90;;;;;;10463509;28;20049;-67
2020/12/06 21:20:47;;;;;;;46.85;26.77;;;7.00;99.90;;;;;;10428659;28;20128;-66
2020/12/06 21:25:48;;;;;;;46.03;25.77;;;7.00;99.90;;;;;;10458307;28;20045;-67
2020/12/06 21:30:50;;;;;;;41.08;24.90;;;7.10;99.90;;;;;;10463786;28;20558;-67
2020/12/06 21:35:52;;;;;;;65.63;32.58;;;7.10;99.90;;;;;;10463726;28;20132;-67
2020/12/06 21:40:53;;;;;;;46.28;24.77;;;6.90;99.90;;;;;;10460435;28;20127;-67
2020/12/06 21:45:55;;;;;;;40.97;23.30;;;6.80;99.90;;;;;;10462231;28;20051;-67
2020/12/06 21:50:56;;;;;;;72.22;35.60;;;6.70;99.90;;;;;;10460573;28;20053;-67
2020/12/06 21:55:58;;;;;;;42.15;23.60;;;6.70;99.90;;;;;;10460986;28;20417;-67
2020/12/06 22:01:05;;;;;;;39.53;22.42;;;6.70;99.90;;;;;;10457525;28;20440;-67
2020/12/06 22:06:11;;;;;;;41.40;23.35;;;6.60;99.90;;;;;;10462881;28;20044;-67
2020/12/06 22:11:12;;;;;;;56.08;24.95;;;6.60;99.90;;;;;;10457139;28;20123;-67
2020/12/06 22:16:15;;;;;;;47.65;23.67;;;6.70;99.90;;;;;;10456590;28;20100;-67
2020/12/06 22:21:23;;;;;;;52.38;24.98;;;6.70;99.90;;;;;;10456533;28;20045;-66
2020/12/06 22:26:25;;;;;;;44.30;23.40;;;6.70;99.90;;;;;;10455908;28;20044;-67
2020/12/06 22:31:26;;;;;;;42.85;23.13;;;6.70;99.90;;;;;;10455612;28;20390;-67
2020/12/06 22:36:28;;;;;;;55.65;26.35;;;6.70;99.90;;;;;;10455973;28;20418;-67
2020/12/06 22:41:32;;;;;;;42.05;22.92;;;6.60;99.90;;;;;;10456151;28;20055;-66
2020/12/06 22:46:34;;;;;;;41.50;22.23;;;6.50;99.90;;;;;;10452790;28;20776;-67
2020/12/06 22:51:37;;;;;;;29.17;16.77;;;6.60;99.90;;;;;;10438477;28;20057;-67
2020/12/06 22:56:38;;;;;;;22.75;14.75;;;6.60;99.90;;;;;;10436490;28;20382;-67
2020/12/06 23:01:40;;;;;;;22.10;14.68;;;6.60;99.90;;;;;;10445029;28;20056;-67
2020/12/06 23:06:42;;;;;;;24.50;14.93;;;6.70;99.90;;;;;;10435470;28;20483;-67
2020/12/06 23:11:43;;;;;;;27.73;16.55;;;6.70;99.90;;;;;;10453305;28;20048;-67
2020/12/06 23:16:45;;;;;;;24.77;14.90;;;6.80;99.90;;;;;;10453135;28;20079;-67
2020/12/06 23:21:47;;;;;;;19.00;12.57;;;6.70;99.90;;;;;;10452491;28;20118;-66
2020/12/06 23:26:52;;;;;;;19.45;12.07;;;6.60;99.90;;;;;;10451390;28;20349;-67
2020/12/06 23:31:53;;;;;;;16.10;11.43;;;6.60;99.90;;;;;;10430543;28;20045;-67
2020/12/06 23:36:55;;;;;;;17.35;11.20;;;6.40;99.90;;;;;;10453098;28;20568;-67
2020/12/06 23:41:56;;;;;;;14.02;10.40;;;6.30;99.90;;;;;;10448449;28;20044;-67
2020/12/06 23:46:59;;;;;;;13.23;9.98;;;6.40;99.90;;;;;;10452526;28;20051;-67
2020/12/06 23:52:01;;;;;;;15.85;10.40;;;6.50;99.90;;;;;;10450762;28;20053;-67
2020/12/06 23:57:02;;;;;;;12.40;9.52;;;6.40;99.90;;;;;;10439330;28;20561;-67
